createdAt,value
2017-07-31T00:00:14.013Z,23.90
2017-07-31T00:02:39.942Z,23.90
2017-07-31T00:05:05.874Z,23.90
2017-07-31T00:07:32.537Z,23.60
2017-07-31T00:09:58.491Z,23.60
2017-07-31T00:12:24.405Z,23.70
2017-07-31T00:14:50.342Z,23.70
2017-07-31T00:17:16.286Z,23.70
2017-07-31T00:19:42.229Z,23.70
2017-07-31T00:22:08.163Z,23.60
2017-07-31T00:24:34.098Z,23.70
2017-07-31T00:27:00.029Z,23.70
2017-07-31T00:29:25.943Z,23.60
2017-07-31T00:31:51.890Z,23.60
2017-07-31T00:34:17.837Z,23.60
2017-07-31T00:36:43.790Z,23.50
2017-07-31T00:39:09.716Z,23.50
2017-07-31T00:41:35.670Z,23.50
2017-07-31T00:44:01.591Z,23.40
2017-07-31T00:46:27.522Z,23.40
2017-07-31T00:48:53.472Z,23.30
2017-07-31T00:51:19.406Z,23.30
2017-07-31T00:53:45.371Z,23.30
2017-07-31T00:56:11.294Z,23.30
2017-07-31T00:58:37.238Z,23.30
2017-07-31T01:01:04.173Z,23.30
2017-07-31T01:03:30.114Z,23.30
2017-07-31T01:05:56.070Z,23.20
2017-07-31T01:08:21.999Z,23.10
2017-07-31T01:10:47.985Z,23.10
2017-07-31T01:13:13.909Z,23.10
2017-07-31T01:15:39.897Z,23.10
2017-07-31T01:18:05.839Z,22.90
2017-07-31T01:20:32.574Z,22.90
2017-07-31T01:22:59.778Z,22.90
2017-07-31T01:25:25.715Z,22.80
2017-07-31T01:27:51.702Z,22.90
2017-07-31T01:30:17.677Z,22.80
2017-07-31T01:32:43.623Z,23.00
2017-07-31T01:35:09.569Z,23.00
2017-07-31T01:37:36.255Z,22.90
2017-07-31T01:40:02.254Z,22.90
2017-07-31T01:42:28.176Z,22.90
2017-07-31T01:44:54.889Z,22.90
2017-07-31T01:47:20.830Z,22.90
2017-07-31T01:49:46.768Z,22.80
2017-07-31T01:52:12.828Z,22.80
2017-07-31T01:54:38.780Z,22.70
2017-07-31T01:57:04.718Z,22.70
2017-07-31T01:59:30.668Z,22.60
2017-07-31T02:01:56.625Z,22.60
2017-07-31T02:04:22.566Z,22.70
2017-07-31T02:06:48.551Z,22.70
2017-07-31T02:09:14.478Z,22.50
2017-07-31T02:11:40.419Z,22.30
2017-07-31T02:14:07.091Z,22.20
2017-07-31T02:16:33.034Z,22.10
2017-07-31T02:18:59.030Z,22.30
2017-07-31T02:21:24.960Z,22.30
2017-07-31T02:23:51.638Z,22.10
2017-07-31T02:26:17.592Z,22.10
2017-07-31T02:28:43.554Z,22.00
2017-07-31T02:31:09.477Z,21.80
2017-07-31T02:33:35.401Z,21.90
2017-07-31T02:36:02.157Z,22.00
2017-07-31T02:38:28.827Z,22.10
2017-07-31T02:40:54.793Z,22.00
2017-07-31T02:43:20.734Z,22.20
2017-07-31T02:45:46.661Z,22.10
2017-07-31T02:48:12.605Z,21.80
2017-07-31T02:50:38.538Z,21.90
2017-07-31T02:53:04.486Z,21.50
2017-07-31T02:55:30.410Z,21.30
2017-07-31T02:57:56.366Z,21.00
2017-07-31T03:00:22.304Z,20.80
2017-07-31T03:02:48.229Z,20.70
2017-07-31T03:05:14.180Z,20.90
2017-07-31T03:07:40.114Z,21.20
2017-07-31T03:10:06.790Z,21.30
2017-07-31T03:12:32.722Z,21.30
2017-07-31T03:14:58.649Z,21.10
2017-07-31T03:17:24.594Z,21.30
2017-07-31T03:19:50.537Z,21.50
2017-07-31T03:22:16.458Z,21.60
2017-07-31T03:24:42.391Z,21.70
2017-07-31T03:27:08.382Z,21.80
2017-07-31T03:29:35.033Z,21.60
2017-07-31T03:32:01.004Z,21.60
2017-07-31T03:34:26.925Z,21.60
2017-07-31T03:36:52.874Z,21.50
2017-07-31T03:39:18.831Z,21.20
2017-07-31T03:41:44.764Z,21.10
2017-07-31T03:44:10.716Z,21.20
2017-07-31T03:46:36.647Z,21.30
2017-07-31T03:49:02.598Z,21.40
2017-07-31T03:51:28.570Z,21.50
2017-07-31T03:53:54.505Z,21.50
2017-07-31T03:56:20.446Z,21.60
2017-07-31T03:58:46.410Z,21.60
2017-07-31T04:01:12.333Z,21.60
2017-07-31T04:03:38.311Z,21.70
2017-07-31T04:06:04.255Z,21.70
2017-07-31T04:08:30.169Z,21.70
2017-07-31T04:10:56.097Z,21.70
2017-07-31T04:13:22.065Z,21.70
2017-07-31T04:15:48.008Z,21.50
2017-07-31T04:18:13.937Z,21.30
2017-07-31T04:20:39.909Z,21.30
2017-07-31T04:23:05.826Z,21.10
2017-07-31T04:25:32.492Z,21.20
2017-07-31T04:27:58.401Z,21.20
2017-07-31T04:30:24.350Z,21.20
2017-07-31T04:32:50.270Z,21.20
2017-07-31T04:35:16.201Z,21.30
2017-07-31T04:37:42.143Z,21.30
2017-07-31T04:40:08.149Z,21.30
2017-07-31T04:42:34.070Z,21.40
2017-07-31T04:45:00.044Z,21.50
2017-07-31T04:47:25.958Z,21.60
2017-07-31T04:49:51.894Z,21.70
2017-07-31T04:52:17.842Z,21.80
2017-07-31T04:54:43.830Z,21.80
2017-07-31T04:57:09.756Z,21.90
2017-07-31T04:59:35.697Z,21.90
2017-07-31T05:02:01.726Z,22.00
2017-07-31T05:04:27.661Z,22.00
2017-07-31T05:06:53.598Z,22.00
2017-07-31T05:09:19.551Z,22.10
2017-07-31T05:11:45.499Z,22.30
2017-07-31T05:14:11.441Z,22.30
2017-07-31T05:16:37.382Z,22.30
2017-07-31T05:19:03.302Z,22.20
2017-07-31T05:21:29.230Z,22.00
2017-07-31T05:23:55.177Z,22.10
2017-07-31T05:26:21.114Z,22.30
2017-07-31T05:28:47.058Z,22.40
2017-07-31T05:31:12.998Z,22.50
2017-07-31T05:33:39.657Z,22.60
2017-07-31T05:36:05.614Z,22.60
2017-07-31T05:38:31.541Z,22.50
2017-07-31T05:40:57.485Z,22.30
2017-07-31T05:43:23.437Z,22.40
2017-07-31T05:45:49.376Z,22.30
2017-07-31T05:48:15.326Z,22.40
2017-07-31T05:50:41.250Z,22.60
2017-07-31T05:53:07.214Z,22.70
2017-07-31T05:55:33.145Z,22.60
2017-07-31T05:57:59.065Z,22.30
2017-07-31T06:00:25.036Z,22.30
2017-07-31T06:02:50.991Z,22.40
2017-07-31T06:05:16.958Z,22.60
2017-07-31T06:07:42.889Z,22.80
2017-07-31T06:10:08.929Z,22.80
2017-07-31T06:12:34.907Z,22.90
2017-07-31T06:15:00.868Z,23.10
2017-07-31T06:17:26.838Z,23.20
2017-07-31T06:19:52.770Z,23.30
2017-07-31T06:22:19.453Z,23.10
2017-07-31T06:24:45.412Z,23.00
2017-07-31T06:27:11.353Z,22.60
2017-07-31T06:29:37.285Z,22.30
2017-07-31T06:32:04.029Z,22.20
2017-07-31T06:34:29.990Z,22.20
2017-07-31T06:36:55.939Z,22.00
2017-07-31T06:39:21.858Z,22.00
2017-07-31T06:41:47.780Z,22.30
2017-07-31T06:44:13.702Z,22.30
2017-07-31T06:46:39.638Z,22.60
2017-07-31T06:49:05.578Z,22.60
2017-07-31T06:51:31.541Z,22.80
2017-07-31T06:53:57.546Z,22.60
2017-07-31T06:56:23.538Z,22.90
2017-07-31T06:58:49.481Z,22.80
2017-07-31T07:01:15.448Z,22.90
2017-07-31T07:03:41.397Z,23.00
2017-07-31T07:06:08.093Z,23.40
2017-07-31T07:08:34.041Z,23.40
2017-07-31T07:10:59.996Z,23.60
2017-07-31T07:13:26.669Z,24.10
2017-07-31T07:15:52.593Z,24.10
2017-07-31T07:18:18.533Z,24.10
2017-07-31T07:20:44.456Z,24.00
2017-07-31T07:23:11.452Z,24.20
2017-07-31T07:25:37.386Z,24.40
2017-07-31T07:28:03.329Z,24.50
2017-07-31T07:30:30.046Z,24.60
2017-07-31T07:32:55.992Z,24.60
2017-07-31T07:35:22.701Z,24.70
2017-07-31T07:37:48.638Z,24.70
2017-07-31T07:40:14.577Z,24.80
2017-07-31T07:42:40.518Z,24.70
2017-07-31T07:45:06.440Z,24.80
2017-07-31T07:47:32.389Z,24.90
2017-07-31T07:49:58.321Z,24.90
2017-07-31T07:52:25.041Z,24.90
2017-07-31T07:54:50.990Z,24.90
2017-07-31T07:57:16.937Z,24.90
2017-07-31T07:59:42.875Z,25.00
2017-07-31T08:02:08.814Z,25.20
2017-07-31T08:04:34.768Z,25.10
2017-07-31T08:07:00.714Z,25.30
2017-07-31T08:09:27.410Z,25.40
2017-07-31T08:11:53.341Z,25.40
2017-07-31T08:14:19.255Z,25.30
2017-07-31T08:16:45.188Z,25.30
2017-07-31T08:19:11.122Z,25.30
2017-07-31T08:21:37.110Z,25.50
2017-07-31T08:24:03.786Z,25.80
2017-07-31T08:26:29.761Z,25.70
2017-07-31T08:28:55.701Z,25.60
2017-07-31T08:31:22.386Z,25.80
2017-07-31T08:33:48.310Z,25.80
2017-07-31T08:36:14.255Z,26.00
2017-07-31T08:38:40.186Z,26.20
2017-07-31T08:41:06.134Z,26.10
2017-07-31T08:43:32.088Z,26.30
2017-07-31T08:45:58.804Z,26.40
2017-07-31T08:48:24.762Z,26.40
2017-07-31T08:50:51.459Z,27.00
2017-07-31T08:53:17.405Z,26.90
2017-07-31T08:55:43.345Z,27.00
2017-07-31T08:58:09.285Z,26.90
2017-07-31T09:00:35.239Z,27.10
2017-07-31T09:03:01.177Z,27.30
2017-07-31T09:05:27.117Z,27.20
2017-07-31T09:07:53.036Z,27.00
2017-07-31T09:10:18.954Z,26.90
2017-07-31T09:12:44.909Z,26.90
2017-07-31T09:15:10.857Z,26.80
2017-07-31T09:17:36.826Z,26.80
2017-07-31T09:20:02.761Z,26.80
2017-07-31T09:22:28.689Z,27.00
2017-07-31T09:24:54.673Z,27.10
2017-07-31T09:27:20.597Z,27.20
2017-07-31T09:29:47.270Z,27.30
2017-07-31T09:32:13.222Z,27.30
2017-07-31T09:34:39.170Z,27.40
2017-07-31T09:37:05.118Z,27.30
2017-07-31T09:39:31.086Z,27.40
2017-07-31T09:41:57.756Z,27.50
2017-07-31T09:44:23.691Z,27.60
2017-07-31T09:46:49.619Z,27.70
2017-07-31T09:49:15.563Z,27.70
2017-07-31T09:51:41.526Z,27.80
2017-07-31T09:54:08.197Z,28.30
2017-07-31T09:56:34.141Z,28.30
2017-07-31T09:59:00.078Z,28.50
2017-07-31T10:01:26.008Z,28.70
2017-07-31T10:03:51.941Z,28.90
2017-07-31T10:06:17.910Z,29.10
2017-07-31T10:08:44.602Z,29.10
2017-07-31T10:11:10.537Z,29.10
2017-07-31T10:13:36.478Z,29.30
2017-07-31T10:16:02.431Z,29.20
2017-07-31T10:18:29.129Z,29.20
2017-07-31T10:20:55.064Z,29.20
2017-07-31T10:23:21.006Z,28.90
2017-07-31T10:25:46.945Z,28.70
2017-07-31T10:28:12.914Z,28.80
2017-07-31T10:30:38.867Z,28.70
2017-07-31T10:33:04.787Z,28.70
2017-07-31T10:35:30.721Z,28.90
2017-07-31T10:37:56.658Z,29.10
2017-07-31T10:40:26.409Z,29.20
2017-07-31T10:42:53.085Z,29.20
2017-07-31T10:45:19.034Z,29.20
2017-07-31T10:47:44.959Z,29.60
2017-07-31T10:50:10.925Z,29.80
2017-07-31T10:52:37.661Z,29.70
2017-07-31T10:55:03.589Z,29.70
2017-07-31T10:57:30.537Z,29.80
2017-07-31T10:59:56.501Z,29.60
2017-07-31T11:02:23.186Z,29.60
2017-07-31T11:04:49.140Z,29.60
2017-07-31T11:07:15.093Z,29.60
2017-07-31T11:09:45.829Z,29.40
2017-07-31T11:12:12.506Z,29.60
2017-07-31T11:14:38.453Z,29.60
2017-07-31T11:17:04.377Z,29.70
2017-07-31T11:19:30.371Z,29.90
2017-07-31T11:21:56.354Z,30.20
2017-07-31T11:24:22.311Z,30.10
2017-07-31T11:26:49.043Z,30.30
2017-07-31T11:29:15.726Z,30.10
2017-07-31T11:31:41.645Z,30.00
2017-07-31T11:34:07.586Z,29.80
2017-07-31T11:36:33.509Z,29.70
2017-07-31T11:38:59.442Z,29.70
2017-07-31T11:41:25.369Z,29.80
2017-07-31T11:43:51.293Z,29.80
2017-07-31T11:46:17.222Z,29.50
2017-07-31T11:48:43.161Z,29.10
2017-07-31T11:51:09.140Z,29.00
2017-07-31T11:53:39.103Z,29.30
2017-07-31T11:56:05.039Z,29.30
2017-07-31T11:58:31.017Z,29.20
2017-07-31T12:00:57.702Z,29.00
2017-07-31T12:03:23.658Z,29.00
2017-07-31T12:05:49.599Z,28.70
2017-07-31T12:08:15.534Z,28.90
2017-07-31T12:10:42.250Z,29.00
2017-07-31T12:13:08.176Z,29.00
2017-07-31T12:15:34.123Z,29.20
2017-07-31T12:18:03.766Z,29.30
2017-07-31T12:20:30.433Z,29.20
2017-07-31T12:22:56.387Z,29.20
2017-07-31T12:25:22.330Z,29.30
2017-07-31T12:27:48.290Z,29.30
2017-07-31T12:30:15.009Z,29.70
2017-07-31T12:32:40.965Z,29.70
2017-07-31T12:35:13.682Z,30.00
2017-07-31T12:37:39.639Z,30.00
2017-07-31T12:40:05.578Z,30.20
2017-07-31T12:42:35.606Z,30.80
2017-07-31T12:45:02.298Z,30.80
2017-07-31T12:47:28.249Z,30.70
2017-07-31T12:49:54.181Z,31.00
2017-07-31T12:52:20.134Z,31.00
2017-07-31T12:54:46.805Z,31.20
2017-07-31T12:57:12.802Z,31.20
2017-07-31T12:59:39.481Z,31.00
2017-07-31T13:02:08.961Z,30.90
2017-07-31T13:04:43.214Z,30.80
2017-07-31T13:07:09.145Z,30.70
2017-07-31T13:09:41.648Z,31.00
2017-07-31T13:12:07.605Z,31.60
2017-07-31T13:14:59.210Z,32.00
2017-07-31T13:17:32.665Z,32.00
2017-07-31T13:19:58.619Z,32.20
2017-07-31T13:22:26.555Z,32.20
2017-07-31T13:25:02.816Z,32.30
2017-07-31T13:27:40.313Z,32.30
2017-07-31T13:30:30.732Z,32.20
2017-07-31T13:33:00.272Z,31.70
2017-07-31T13:35:44.663Z,30.90
2017-07-31T13:38:21.230Z,30.70
2017-07-31T13:40:47.174Z,30.80
2017-07-31T13:46:29.009Z,31.10
2017-07-31T13:49:04.381Z,31.20
2017-07-31T13:51:45.774Z,31.10
2017-07-31T13:54:13.814Z,31.10
2017-07-31T13:56:47.352Z,31.40
2017-07-31T13:59:20.629Z,31.40
2017-07-31T14:01:54.947Z,31.40
2017-07-31T14:04:27.431Z,31.40
2017-07-31T14:06:59.758Z,31.40
2017-07-31T14:09:36.995Z,31.00
2017-07-31T14:14:59.830Z,30.20
2017-07-31T14:17:32.019Z,29.80
2017-07-31T14:23:03.879Z,30.20
2017-07-31T14:25:40.298Z,29.70
2017-07-31T14:28:20.642Z,29.70
2017-07-31T14:34:04.619Z,29.30
2017-07-31T14:36:57.241Z,28.90
2017-07-31T14:39:33.756Z,28.80
2017-07-31T14:45:06.874Z,28.20
2017-07-31T14:47:43.437Z,28.20
2017-07-31T14:50:14.973Z,28.50
2017-07-31T14:52:42.022Z,28.60
2017-07-31T14:55:16.634Z,28.30
2017-07-31T14:57:47.171Z,28.20
2017-07-31T15:00:17.425Z,27.80
2017-07-31T15:05:39.032Z,27.20
2017-07-31T15:08:19.537Z,27.20
2017-07-31T15:10:58.946Z,27.50
2017-07-31T15:13:44.537Z,27.40
2017-07-31T15:16:10.531Z,27.40
2017-07-31T15:18:56.331Z,27.60
2017-07-31T15:21:27.631Z,27.60
2017-07-31T15:24:16.813Z,27.60
2017-07-31T15:26:42.976Z,27.60
2017-07-31T15:29:13.766Z,27.30
2017-07-31T15:31:46.877Z,27.40
2017-07-31T15:34:18.986Z,27.40
2017-07-31T15:37:09.382Z,27.30
2017-07-31T15:42:30.729Z,27.30
2017-07-31T15:44:57.393Z,27.80
2017-07-31T15:47:27.206Z,27.70
2017-07-31T15:49:59.530Z,27.60
2017-07-31T15:52:43.950Z,27.50
2017-07-31T15:55:17.426Z,27.50
2017-07-31T15:57:45.174Z,27.30
2017-07-31T16:00:11.886Z,27.40
2017-07-31T16:02:51.398Z,27.40
2017-07-31T16:08:19.274Z,27.60
2017-07-31T16:10:55.602Z,27.50
2017-07-31T16:19:17.054Z,28.00
2017-07-31T16:21:56.528Z,28.60
2017-07-31T16:24:26.059Z,29.00
2017-07-31T16:26:58.171Z,29.00
2017-07-31T16:29:31.482Z,29.00
2017-07-31T16:32:14.766Z,28.60
2017-07-31T16:34:41.504Z,28.70
2017-07-31T16:37:25.493Z,28.70
2017-07-31T16:39:53.531Z,28.90
2017-07-31T16:42:38.459Z,29.40
2017-07-31T16:45:07.497Z,29.30
2017-07-31T16:47:42.274Z,29.80
2017-07-31T16:50:09.156Z,29.70
2017-07-31T16:52:37.197Z,29.80
2017-07-31T16:55:03.174Z,29.80
2017-07-31T16:57:55.688Z,30.00
2017-07-31T17:00:30.142Z,30.00
2017-07-31T17:03:00.614Z,29.80
2017-07-31T17:05:38.827Z,29.80
2017-07-31T17:08:09.434Z,30.10
2017-07-31T17:10:42.739Z,30.10
2017-07-31T17:13:17.093Z,30.10
2017-07-31T17:15:46.639Z,30.20
2017-07-31T17:18:12.637Z,30.20
2017-07-31T17:21:03.124Z,30.30
2017-07-31T17:23:36.588Z,30.40
2017-07-31T17:26:05.988Z,30.50
2017-07-31T17:28:42.331Z,30.50
2017-07-31T17:31:08.332Z,30.80
2017-07-31T17:33:36.101Z,30.90
2017-07-31T17:36:13.410Z,30.90
2017-07-31T17:38:39.494Z,30.90
2017-07-31T17:41:25.150Z,31.00
2017-07-31T17:43:51.312Z,30.90
2017-07-31T17:46:21.039Z,31.00
2017-07-31T17:49:06.706Z,30.90
2017-07-31T17:51:32.795Z,30.90
2017-07-31T17:54:14.265Z,30.80
2017-07-31T17:56:43.764Z,30.70
2017-07-31T17:59:23.033Z,30.70
2017-07-31T18:01:53.410Z,30.50
2017-07-31T18:04:23.754Z,29.80
2017-07-31T18:06:53.086Z,29.80
2017-07-31T18:09:19.022Z,29.70
2017-07-31T18:12:02.747Z,29.60
2017-07-31T18:14:32.226Z,29.50
2017-07-31T18:17:00.194Z,29.30
2017-07-31T18:19:33.749Z,28.50
2017-07-31T18:25:07.531Z,28.20
2017-07-31T18:27:53.915Z,27.80
2017-07-31T18:30:27.409Z,27.60
2017-07-31T18:33:03.978Z,27.60
2017-07-31T18:35:29.912Z,27.70
2017-07-31T18:38:07.507Z,27.80
2017-07-31T18:40:34.555Z,27.70
2017-07-31T18:43:05.257Z,27.70
2017-07-31T18:48:25.495Z,27.80
2017-07-31T18:51:04.504Z,27.80
2017-07-31T18:53:30.463Z,27.80
2017-07-31T18:59:11.126Z,27.50
2017-07-31T19:04:37.226Z,27.30
2017-07-31T19:07:10.641Z,27.50
2017-07-31T19:09:40.098Z,27.50
2017-07-31T19:12:19.162Z,27.60
2017-07-31T19:14:52.705Z,27.70
2017-07-31T19:17:29.139Z,27.70
2017-07-31T19:20:03.345Z,27.70
2017-07-31T19:22:36.741Z,27.50
2017-07-31T19:25:11.083Z,26.90
2017-07-31T19:27:47.341Z,26.60
2017-07-31T19:30:21.682Z,26.70
2017-07-31T19:32:54.160Z,26.40
2017-07-31T19:35:27.935Z,26.20
2017-07-31T19:37:53.861Z,26.30
2017-07-31T19:40:19.859Z,26.10
2017-07-31T19:43:00.285Z,26.30
2017-07-31T19:45:39.941Z,26.20
2017-07-31T19:48:10.495Z,26.10
2017-07-31T19:50:54.943Z,24.90
2017-07-31T19:53:25.277Z,24.80
2017-07-31T19:55:57.668Z,24.90
2017-07-31T19:58:36.198Z,25.10
2017-07-31T20:01:24.444Z,25.00
2017-07-31T20:04:02.939Z,25.00
2017-07-31T20:06:41.361Z,25.00
2017-07-31T20:09:24.693Z,25.30
2017-07-31T20:11:58.070Z,25.50
2017-07-31T20:14:30.570Z,25.50
2017-07-31T20:17:08.889Z,25.30
2017-07-31T20:19:45.466Z,25.30
2017-07-31T20:22:11.425Z,25.20
2017-07-31T20:24:37.481Z,25.20
2017-07-31T20:27:16.369Z,25.20
2017-07-31T20:29:59.933Z,25.30
2017-07-31T20:32:39.477Z,25.30
2017-07-31T20:35:08.877Z,25.10
2017-07-31T20:37:57.060Z,24.90
2017-07-31T20:40:23.030Z,24.80
2017-07-31T20:45:53.410Z,24.60
2017-07-31T20:54:05.706Z,24.90
2017-07-31T20:56:45.045Z,24.90
2017-07-31T20:59:21.511Z,25.00
2017-07-31T21:01:47.434Z,24.80
2017-07-31T21:07:33.590Z,24.60
2017-07-31T21:12:59.802Z,24.50
2017-07-31T21:15:39.139Z,24.30
2017-07-31T21:18:12.474Z,24.60
2017-07-31T21:20:41.889Z,24.60
2017-07-31T21:23:21.034Z,24.70
2017-07-31T21:25:54.571Z,24.70
2017-07-31T21:28:26.693Z,24.80
2017-07-31T21:31:03.168Z,24.60
2017-07-31T21:33:37.475Z,24.40
2017-07-31T21:36:11.791Z,24.10
2017-07-31T21:38:45.192Z,23.90
2017-07-31T21:41:17.575Z,23.60
2017-07-31T21:43:53.813Z,23.70
2017-07-31T21:46:28.076Z,23.60
2017-07-31T21:49:00.519Z,23.50
2017-07-31T21:51:33.815Z,23.50
2017-07-31T21:54:07.116Z,23.50
2017-07-31T21:56:45.550Z,23.40
2017-07-31T21:59:18.823Z,23.40
2017-07-31T22:01:53.236Z,23.50
2017-07-31T22:04:23.651Z,23.60
2017-07-31T22:06:50.324Z,23.60
2017-07-31T22:09:16.275Z,23.60
2017-07-31T22:11:42.248Z,23.50
2017-07-31T22:14:08.221Z,23.20
2017-07-31T22:16:54.029Z,23.00
2017-07-31T22:19:19.978Z,23.00
2017-07-31T22:21:52.786Z,23.00
2017-07-31T22:24:18.748Z,22.90
2017-07-31T22:26:44.690Z,23.00
2017-07-31T22:29:10.634Z,23.00
2017-07-31T22:31:37.322Z,22.90
2017-07-31T22:34:03.270Z,22.90
2017-07-31T22:36:29.225Z,23.10
2017-07-31T22:38:55.173Z,23.10
2017-07-31T22:41:21.860Z,23.10
2017-07-31T22:43:47.808Z,23.00
2017-07-31T22:46:13.742Z,22.80
2017-07-31T22:48:39.673Z,22.80
2017-07-31T22:51:05.619Z,22.90
2017-07-31T22:53:32.304Z,23.30
2017-07-31T22:55:58.246Z,23.20
2017-07-31T22:58:24.186Z,23.30
2017-07-31T23:00:50.129Z,23.40
2017-07-31T23:03:16.089Z,23.50
2017-07-31T23:05:42.758Z,23.20
2017-07-31T23:08:08.675Z,23.20
2017-07-31T23:10:40.547Z,23.10
2017-07-31T23:13:06.650Z,23.10
2017-07-31T23:15:33.689Z,23.20
2017-07-31T23:17:59.719Z,23.20
2017-07-31T23:20:25.714Z,23.00
2017-07-31T23:22:51.759Z,22.90
2017-07-31T23:25:17.701Z,23.00
2017-07-31T23:27:43.763Z,23.10
2017-07-31T23:30:10.034Z,23.30
2017-07-31T23:32:37.130Z,23.40
2017-07-31T23:35:03.967Z,23.70
2017-07-31T23:37:29.910Z,23.70
2017-07-31T23:39:56.792Z,23.70
2017-07-31T23:42:23.157Z,23.70
2017-07-31T23:44:49.375Z,23.80
2017-07-31T23:47:16.019Z,23.50
2017-07-31T23:49:42.282Z,23.70
2017-07-31T23:52:08.252Z,23.70
2017-07-31T23:54:34.186Z,23.50
2017-07-31T23:57:00.521Z,23.30
2017-07-31T23:59:26.470Z,23.10
